21:33
Airports
History
Links
Donate
Help keep this website running!
PayPal
Bitcoin
This page is community maintained. The information is intended for PC simulator navigation or reference.
Always use approved charts for navigation.
07W
Brickhouse Fld
Brickhouse Fld (07W)
Burgaw, North Carolina, United States (28457)
4
Lat/Lng:34° 24' 50.6" N / 77° 56' 58.96" W
34.414056 / -77.949711
Elevation:31'ft / 9mMSL
ID / ICAO:07W
Runways:1
Longest:(07-25) 917.3m / 3,010ft Grass
Distance To
Airport ID:
Nearby VORs <50NM
Nearby NDBs
Nearby WeatherUpdated 08-16-17 20:53 GMT
Nearby weather at KILM, Wilmington Intl located 10.2 nautical miles from 07W
Altimeter: 29.98
Visibility: 10.0 statute miles
Wind: 7 knots (110°)
Temp: 29°c 84°f
Humidity: 89.0%

METAR: KILM 162053Z 11007KT 10SM FEW023 FEW065 SCT110 29/27 A2998 RMK AO2 LTG DSNT S AND SW RAB21E34 SLP150 P0006 60006 T02940267 58004

(Powered by phpweather)
Runway 07 / 25
Dimensions:917.3 x 18.3m 3010' x 60'ft
Surface:Grass
Runway 07 [A]Runway 25 [B]
Heading:063°TH 243°TH
Lat:
Lng:
34° 24' 43.88"N
77° 57' 14.96"W
34° 24' 57.33"N
77° 56' 42.96"W
User Notes and Comments
Google Map
Nearby Airports
(R) Stag Air Park 9.7 NM
7NC1 NE 35°
(C) Wilmington Intl 10.2 NM
KILM (WX) SSE 164°
(R) Sandy Run Acres 15.4 NM
9NC6 SW 231°
(R) Winnabow 20.2 NM
77NC SSW 206°
(R) Yonder 20.7 NM
NC65 WNW 299°
(U) Henderson Field 21.2 NM
KACZ N 351°
(R) Topsail Airpark 21.4 NM
01NC ENE 78°
VFR Chart
Flight Planning at SkyVector.com